Time;durP1;ratioP1;P1;durP2;ratioP2;P2;SDS_P1;SDS_P2;PMS_P1;PMS_P2;Temp;Humidity;BMP_temperature;BMP_pressure;BME280_temperature;BME280_humidity;BME280_pressure;Samples;Min_cycle;Max_cycle;Signal;HPM_P1;HPM_P2
2022/12/10 00:01:40;;;;;;;32.53;20.43;;;2.40;99.00;;;;;;5065095;28;20201;-85
2022/12/10 00:04:07;;;;;;;32.30;19.90;;;2.40;99.10;;;;;;5063498;28;20206;-85
2022/12/10 00:06:35;;;;;;;29.90;18.67;;;2.40;99.40;;;;;;5063496;28;20208;-85
2022/12/10 00:09:03;;;;;;;31.90;19.43;;;2.40;99.10;;;;;;5066791;28;20211;-85
2022/12/10 00:11:35;;;;;;;32.43;20.03;;;2.40;99.10;;;;;;5065484;28;20210;-85
2022/12/10 00:14:02;;;;;;;33.07;20.20;;;2.30;99.00;;;;;;5062718;28;20238;-85
2022/12/10 00:16:30;;;;;;;36.33;21.70;;;2.20;99.30;;;;;;5063569;28;20213;-85
2022/12/10 00:18:58;;;;;;;37.83;21.67;;;2.20;99.60;;;;;;5062631;28;20307;-85
2022/12/10 00:21:27;;;;;;;33.03;20.87;;;2.20;99.60;;;;;;5067615;28;20205;-85
2022/12/10 00:23:55;;;;;;;31.57;20.43;;;2.20;99.60;;;;;;5063284;28;20197;-85
2022/12/10 00:26:24;;;;;;;34.13;20.73;;;2.20;99.70;;;;;;5056890;28;20217;-87
2022/12/10 00:28:53;;;;;;;30.83;19.43;;;2.30;99.70;;;;;;5063290;28;20212;-85
2022/12/10 00:31:22;;;;;;;28.77;18.90;;;2.30;99.70;;;;;;5067057;28;20197;-85
2022/12/10 00:33:50;;;;;;;32.13;20.20;;;2.40;99.30;;;;;;5064863;28;20201;-85
2022/12/10 00:36:24;;;;;;;32.60;19.93;;;2.40;99.20;;;;;;5065188;28;20201;-86
2022/12/10 00:38:51;;;;;;;30.93;19.90;;;2.30;99.40;;;;;;5065669;28;20224;-85
2022/12/10 00:41:28;;;;;;;30.10;19.20;;;2.50;99.40;;;;;;5059491;28;20209;-85
2022/12/10 00:43:56;;;;;;;33.20;19.63;;;2.50;98.90;;;;;;5067283;28;20263;-86
2022/12/10 00:46:24;;;;;;;31.30;19.77;;;2.50;98.80;;;;;;5064891;28;20197;-85
2022/12/10 00:48:51;;;;;;;29.93;19.80;;;2.40;98.90;;;;;;5064897;28;20205;-86
2022/12/10 00:51:20;;;;;;;36.57;20.90;;;2.40;99.40;;;;;;5065641;28;20261;-85
2022/12/10 00:53:49;;;;;;;32.43;19.93;;;2.30;99.70;;;;;;5064377;28;20583;-85
2022/12/10 00:56:19;;;;;;;34.40;20.57;;;2.20;99.70;;;;;;5062582;28;20682;-85
2022/12/10 00:58:46;;;;;;;33.17;20.10;;;2.20;99.60;;;;;;5063371;28;20225;-85
2022/12/10 01:01:17;;;;;;;33.00;20.27;;;2.20;99.60;;;;;;5067993;28;20276;-85
2022/12/10 01:03:45;;;;;;;32.90;19.63;;;2.40;99.70;;;;;;5062365;28;20305;-85
2022/12/10 01:06:15;;;;;;;32.87;19.30;;;2.60;98.90;;;;;;5065098;28;20259;-87
2022/12/10 01:08:46;;;;;;;33.03;20.43;;;2.70;98.20;;;;;;5069011;28;20871;-85
2022/12/10 01:11:15;;;;;;;35.20;19.87;;;2.70;98.30;;;;;;5071435;28;20205;-85
2022/12/10 01:13:43;;;;;;;32.93;21.00;;;2.50;98.10;;;;;;5067838;28;20278;-85
2022/12/10 01:16:11;;;;;;;32.07;20.33;;;2.40;98.60;;;;;;5069363;28;20276;-85
2022/12/10 01:18:41;;;;;;;33.10;19.97;;;2.30;99.20;;;;;;5063171;28;20231;-84
2022/12/10 01:21:10;;;;;;;33.37;20.73;;;2.30;99.70;;;;;;5071183;28;20664;-85
2022/12/10 01:23:40;;;;;;;35.07;21.00;;;2.30;99.70;;;;;;5069259;28;20225;-85
2022/12/10 01:26:09;;;;;;;37.03;21.73;;;2.20;99.60;;;;;;5073586;28;20205;-84
2022/12/10 01:28:39;;;;;;;35.13;21.30;;;2.10;99.60;;;;;;5063780;28;20712;-84
2022/12/10 01:31:11;;;;;;;36.00;23.00;;;2.00;99.60;;;;;;5069106;28;20265;-85
2022/12/10 01:33:40;;;;;;;35.07;22.13;;;2.00;99.60;;;;;;5064862;28;20214;-85
2022/12/10 01:36:09;;;;;;;35.60;22.47;;;2.00;99.90;;;;;;5064119;28;20803;-84
2022/12/10 01:38:36;;;;;;;39.40;23.77;;;1.90;99.90;;;;;;5073416;28;20211;-85
2022/12/10 01:41:04;;;;;;;45.90;26.23;;;2.00;99.90;;;;;;5067499;28;20229;-85
2022/12/10 01:43:51;;;;;;;50.77;26.10;;;2.00;99.90;;;;;;5069026;28;20212;-85
2022/12/10 01:46:18;;;;;;;46.43;25.63;;;2.00;99.90;;;;;;5062658;28;20752;-85
2022/12/10 01:48:47;;;;;;;47.00;25.33;;;1.90;99.90;;;;;;5065809;28;20591;-86
2022/12/10 01:51:15;;;;;;;47.07;25.73;;;1.90;99.90;;;;;;5075378;28;20666;-85
2022/12/10 01:53:43;;;;;;;41.90;24.13;;;1.90;99.90;;;;;;5070487;28;20322;-85
2022/12/10 01:56:12;;;;;;;45.43;25.40;;;2.00;99.90;;;;;;5074260;28;20201;-85
2022/12/10 01:58:40;;;;;;;43.20;24.57;;;2.20;99.90;;;;;;5071658;28;20686;-85
2022/12/10 02:01:11;;;;;;;41.43;24.63;;;2.20;99.90;;;;;;5075783;28;20292;-85
2022/12/10 02:03:52;;;;;;;50.03;24.97;;;2.10;99.90;;;;;;5070761;28;20230;-85
2022/12/10 02:06:30;;;;;;;48.33;25.20;;;2.00;99.90;;;;;;5068561;28;20665;-85
2022/12/10 02:09:06;;;;;;;48.67;26.43;;;2.00;99.90;;;;;;5069310;28;20212;-85
2022/12/10 02:11:42;;;;;;;45.07;25.23;;;2.00;99.90;;;;;;5070846;28;20235;-85
2022/12/10 02:14:17;;;;;;;43.20;24.03;;;2.00;99.90;;;;;;5076451;28;20215;-85
2022/12/10 02:16:49;;;;;;;45.00;25.20;;;1.90;99.90;;;;;;5071586;28;20204;-84
2022/12/10 02:19:24;;;;;;;44.47;25.23;;;1.90;99.90;;;;;;5066876;28;20383;-84
2022/12/10 02:21:53;;;;;;;43.47;24.17;;;1.90;99.90;;;;;;5066112;28;20223;-85
2022/12/10 02:24:27;;;;;;;43.77;23.87;;;1.80;99.90;;;;;;5067485;28;20558;-85
2022/12/10 02:26:59;;;;;;;44.00;25.17;;;1.80;99.90;;;;;;5061604;28;20198;-85
2022/12/10 02:29:30;;;;;;;46.00;24.80;;;1.90;99.90;;;;;;5067810;28;20669;-85
2022/12/10 02:32:13;;;;;;;40.07;23.53;;;1.80;99.90;;;;;;5066318;28;20194;-85
2022/12/10 02:34:44;;;;;;;45.27;24.87;;;1.80;99.90;;;;;;5067827;28;20208;-84
2022/12/10 02:37:17;;;;;;;42.13;24.13;;;1.80;99.90;;;;;;5061572;28;20198;-84
2022/12/10 02:39:47;;;;;;;41.23;23.70;;;1.80;99.90;;;;;;5060785;28;20239;-85
2022/12/10 02:42:17;;;;;;;37.50;22.27;;;1.70;99.90;;;;;;5067103;28;20321;-85
2022/12/10 02:44:48;;;;;;;38.43;22.90;;;1.80;99.90;;;;;;5069992;28;20206;-84
2022/12/10 02:47:17;;;;;;;36.47;21.83;;;1.80;99.90;;;;;;5060906;28;20196;-84
2022/12/10 02:49:48;;;;;;;36.37;22.60;;;1.70;99.90;;;;;;5064131;28;20669;-84
2022/12/10 02:52:18;;;;;;;36.07;21.83;;;1.70;99.90;;;;;;5069441;28;20219;-84
2022/12/10 02:54:51;;;;;;;35.53;21.50;;;1.70;99.90;;;;;;5068652;28;20257;-84
2022/12/10 02:57:32;;;;;;;36.87;20.57;;;1.70;99.90;;;;;;5068301;28;20215;-85
2022/12/10 03:00:18;;;;;;;34.57;20.53;;;1.80;99.90;;;;;;5062230;28;20696;-85
2022/12/10 03:03:05;;;;;;;33.43;21.17;;;1.80;99.90;;;;;;5064953;28;20201;-84
2022/12/10 03:05:38;;;;;;;35.20;20.60;;;1.90;99.90;;;;;;5062487;28;20282;-84
2022/12/10 03:08:10;;;;;;;32.57;20.73;;;1.80;99.90;;;;;;5064230;28;20198;-84
2022/12/10 03:10:43;;;;;;;32.23;20.53;;;1.80;99.90;;;;;;5064815;28;20201;-85
2022/12/10 03:13:17;;;;;;;32.40;21.07;;;1.70;99.90;;;;;;5067758;28;20578;-85
2022/12/10 03:15:49;;;;;;;30.47;19.67;;;1.70;99.90;;;;;;5067686;28;20740;-84
2022/12/10 03:18:20;;;;;;;32.83;20.47;;;1.80;99.90;;;;;;5070017;28;20204;-84
2022/12/10 03:20:48;;;;;;;31.30;20.50;;;1.80;99.90;;;;;;5066523;28;20217;-85
2022/12/10 03:23:18;;;;;;;36.87;22.17;;;1.80;99.90;;;;;;5069038;28;20207;-84
2022/12/10 03:25:48;;;;;;;35.67;21.83;;;1.70;99.90;;;;;;5065255;28;20383;-85
2022/12/10 03:28:16;;;;;;;34.10;20.83;;;1.80;99.90;;;;;;5075809;28;20682;-85
2022/12/10 03:30:47;;;;;;;33.30;20.53;;;1.80;99.90;;;;;;5067661;28;20197;-85
2022/12/10 03:33:14;;;;;;;34.47;21.30;;;1.70;99.90;;;;;;5064787;28;20207;-84
2022/12/10 03:35:42;;;;;;;34.80;21.73;;;1.70;99.90;;;;;;5069258;28;20205;-85
2022/12/10 03:38:10;;;;;;;33.33;20.53;;;1.60;99.90;;;;;;5062850;28;20296;-87
2022/12/10 03:40:37;;;;;;;36.60;21.37;;;1.70;99.90;;;;;;5066677;28;20217;-86
2022/12/10 03:43:05;;;;;;;36.63;21.23;;;1.70;99.90;;;;;;5064224;28;20207;-86
2022/12/10 03:45:31;;;;;;;36.67;21.47;;;1.60;99.90;;;;;;5061909;28;20597;-85
2022/12/10 03:48:00;;;;;;;35.47;21.57;;;1.70;99.90;;;;;;5067267;28;20292;-84
2022/12/10 03:50:27;;;;;;;34.57;21.03;;;1.70;99.90;;;;;;5068898;28;20205;-84
2022/12/10 03:52:54;;;;;;;32.93;20.10;;;1.60;99.90;;;;;;5062579;28;20202;-84
2022/12/10 03:55:20;;;;;;;34.00;20.73;;;1.70;99.90;;;;;;5068657;28;20211;-85
2022/12/10 03:57:50;;;;;;;35.53;21.10;;;1.70;99.90;;;;;;5065209;28;20201;-84
2022/12/10 04:00:18;;;;;;;34.73;20.93;;;1.70;99.90;;;;;;5065688;28;20586;-85
2022/12/10 04:02:44;;;;;;;32.67;20.13;;;1.70;99.90;;;;;;5063217;28;20309;-84
2022/12/10 04:05:13;;;;;;;35.27;21.33;;;1.70;99.90;;;;;;5065578;28;20225;-84
2022/12/10 04:07:40;;;;;;;36.50;21.40;;;1.70;99.90;;;;;;5067614;28;20206;-84
2022/12/10 04:10:09;;;;;;;36.57;21.83;;;1.70;99.90;;;;;;5051579;28;20205;-84
2022/12/10 04:16:26;;;;;;;35.57;22.00;;;1.70;99.90;;;;;;5064783;28;20216;-83
2022/12/10 04:18:16;;;;;;;37.83;21.10;;;1.60;99.90;;;;;;5069356;28;20232;-85
2022/12/10 04:29:45;;;;;;;36.70;21.43;;;1.50;99.90;;;;;;5068124;28;20738;-84
2022/12/10 04:32:15;;;;;;;38.27;20.67;;;1.50;99.90;;;;;;5075159;28;20287;-84
2022/12/10 04:38:11;;;;;;;36.23;20.20;;;1.50;99.90;;;;;;5066414;28;20287;-84
2022/12/10 04:40:40;;;;;;;35.10;20.20;;;1.40;99.90;;;;;;5074141;28;20218;-83
2022/12/10 04:43:07;;;;;;;37.77;21.50;;;1.50;99.90;;;;;;5067239;28;20273;-84
2022/12/10 04:45:35;;;;;;;39.10;21.93;;;1.50;99.90;;;;;;5075677;28;20320;-84
2022/12/10 04:51:24;;;;;;;35.53;20.73;;;1.50;99.90;;;;;;5081967;28;20183;-84
2022/12/10 04:54:20;;;;;;;37.93;21.47;;;1.50;99.90;;;;;;5082353;28;20447;-84
2022/12/10 04:56:53;;;;;;;36.40;21.57;;;1.40;99.90;;;;;;5068332;28;20590;-84
2022/12/10 04:59:33;;;;;;;38.17;21.27;;;1.40;99.90;;;;;;5078664;28;20193;-87
2022/12/10 05:02:20;;;;;;;34.97;20.47;;;1.40;99.90;;;;;;5059865;28;20193;-83
2022/12/10 05:05:32;;;;;;;36.67;20.70;;;1.40;99.90;;;;;;5085282;28;20273;-84
2022/12/10 05:11:39;;;;;;;39.97;22.63;;;1.50;99.90;;;;;;5069024;28;20281;-84
2022/12/10 05:14:11;;;;;;;44.00;23.10;;;1.40;99.90;;;;;;5070293;28;20280;-86
2022/12/10 05:16:45;;;;;;;42.63;23.87;;;1.50;99.90;;;;;;5067522;28;20629;-84
2022/12/10 05:19:44;;;;;;;40.50;22.33;;;1.40;99.90;;;;;;5063592;28;20305;-84
2022/12/10 05:25:27;;;;;;;41.37;21.93;;;1.40;99.90;;;;;;5072711;28;20270;-84
2022/12/10 05:31:15;;;;;;;34.40;20.33;;;1.50;99.90;;;;;;5070044;28;20237;-85
2022/12/10 05:34:02;;;;;;;37.50;22.23;;;1.50;99.90;;;;;;5068755;28;20205;-84
2022/12/10 05:36:33;;;;;;;39.83;22.80;;;1.50;99.90;;;;;;5070270;28;20331;-83
2022/12/10 05:43:04;;;;;;;36.70;22.03;;;1.40;99.90;;;;;;5070226;28;20208;-84
2022/12/10 05:46:10;;;;;;;35.73;22.57;;;1.40;99.90;;;;;;5073910;28;20888;-84
2022/12/10 05:48:53;;;;;;;38.80;23.47;;;1.40;99.90;;;;;;5064218;28;20209;-83
2022/12/10 05:51:23;;;;;;;42.73;24.23;;;1.40;99.90;;;;;;5058600;28;20193;-84
2022/12/10 05:53:51;;;;;;;38.10;23.00;;;1.40;99.90;;;;;;5068237;28;20325;-84
2022/12/10 05:56:23;;;;;;;38.10;23.23;;;1.40;99.90;;;;;;5070064;28;20189;-84
2022/12/10 05:59:04;;;;;;;39.83;22.87;;;1.40;99.90;;;;;;5066986;28;20200;-83
2022/12/10 06:01:34;;;;;;;37.27;23.23;;;1.50;99.90;;;;;;5069235;28;20715;-84
2022/12/10 06:04:06;;;;;;;36.97;23.70;;;1.40;99.90;;;;;;5071320;28;20209;-84
2022/12/10 06:10:03;;;;;;;39.97;23.70;;;1.30;99.90;;;;;;5074406;28;20226;-84
2022/12/10 06:13:08;;;;;;;38.70;23.63;;;1.40;99.90;;;;;;5070089;28;20196;-84
2022/12/10 06:15:39;;;;;;;38.60;22.60;;;1.40;99.90;;;;;;5073077;28;20189;-84
2022/12/10 06:18:09;;;;;;;37.60;23.07;;;1.40;99.90;;;;;;5065833;28;20208;-84
2022/12/10 06:20:41;;;;;;;40.10;24.70;;;1.40;99.90;;;;;;5069420;28;20217;-84
2022/12/10 06:26:39;;;;;;;39.27;24.03;;;1.40;99.90;;;;;;5061509;28;20185;-84
2022/12/10 06:29:21;;;;;;;39.70;22.97;;;1.40;99.90;;;;;;5073351;28;20196;-84
2022/12/10 06:31:51;;;;;;;41.07;23.47;;;1.30;99.90;;;;;;5066401;28;20205;-84
2022/12/10 06:34:45;;;;;;;40.60;22.90;;;1.30;99.90;;;;;;5085258;28;20203;-83
2022/12/10 06:37:34;;;;;;;42.47;24.00;;;1.30;99.90;;;;;;5068932;28;20280;-83
2022/12/10 06:40:04;;;;;;;42.53;22.93;;;1.30;99.90;;;;;;5079430;28;20223;-84
2022/12/10 06:42:33;;;;;;;38.53;22.87;;;1.30;99.90;;;;;;5066278;28;20205;-83
2022/12/10 06:45:03;;;;;;;37.30;22.77;;;1.40;99.90;;;;;;5074343;28;20292;-84
2022/12/10 06:47:30;;;;;;;39.73;23.07;;;1.40;99.90;;;;;;5071217;28;20268;-83
2022/12/10 06:50:09;;;;;;;41.33;23.60;;;1.40;99.90;;;;;;5076099;28;20204;-83
2022/12/10 06:53:10;;;;;;;39.47;23.30;;;1.30;99.90;;;;;;5078398;28;20205;-83
2022/12/10 06:55:38;;;;;;;37.23;21.80;;;1.40;99.90;;;;;;5064336;28;20205;-84
2022/12/10 06:58:09;;;;;;;38.27;22.63;;;1.60;99.90;;;;;;5068029;28;20201;-84
2022/12/10 07:00:39;;;;;;;36.20;23.13;;;1.60;99.90;;;;;;5066102;28;20213;-84
2022/12/10 07:03:21;;;;;;;33.23;20.70;;;1.60;99.90;;;;;;5070343;28;20328;-84
2022/12/10 07:05:48;;;;;;;31.67;20.43;;;1.70;99.90;;;;;;5067285;28;20284;-84
2022/12/10 07:08:19;;;;;;;33.23;21.53;;;1.70;99.90;;;;;;5070629;28;20193;-84
2022/12/10 07:11:27;;;;;;;34.43;21.00;;;1.80;99.90;;;;;;5068564;28;20189;-83
2022/12/10 07:13:54;;;;;;;32.93;20.60;;;1.70;99.80;;;;;;5080911;28;20285;-84
2022/12/10 07:16:50;;;;;;;30.20;20.80;;;1.70;99.90;;;;;;5066116;28;20205;-86
2022/12/10 07:19:38;;;;;;;32.33;20.53;;;1.60;99.90;;;;;;5073297;28;20276;-84
2022/12/10 07:22:56;;;;;;;34.30;20.67;;;1.70;99.90;;;;;;5062329;28;20221;-84
2022/12/10 07:25:29;;;;;;;33.43;20.60;;;1.70;99.90;;;;;;5068812;28;20200;-84
2022/12/10 07:27:57;;;;;;;32.27;20.23;;;1.70;99.90;;;;;;5070734;28;20254;-84
2022/12/10 07:30:27;;;;;;;33.70;21.73;;;1.70;99.90;;;;;;5066152;28;20282;-84
2022/12/10 07:33:09;;;;;;;34.50;21.40;;;1.80;99.90;;;;;;5067983;28;20536;-84
2022/12/10 07:36:15;;;;;;;35.37;21.60;;;1.70;99.90;;;;;;5068668;28;20653;-84
2022/12/10 07:38:55;;;;;;;32.33;20.83;;;1.60;99.90;;;;;;5069517;28;20307;-84
2022/12/10 07:41:29;;;;;;;31.77;19.57;;;1.60;99.90;;;;;;5067888;28;20271;-84
2022/12/10 07:43:57;;;;;;;30.57;19.73;;;1.70;99.90;;;;;;5073026;28;20257;-84
2022/12/10 07:46:44;;;;;;;30.10;19.97;;;1.70;99.90;;;;;;5064055;28;20202;-85
2022/12/10 07:49:12;;;;;;;30.50;18.97;;;1.70;99.90;;;;;;5069649;28;20255;-85
2022/12/10 07:52:20;;;;;;;27.90;18.50;;;1.70;99.80;;;;;;5069019;28;20210;-82
2022/12/10 07:58:23;;;;;;;29.17;16.67;;;1.70;99.90;;;;;;5074882;28;20195;-82
2022/12/10 08:01:15;;;;;;;27.90;18.23;;;1.80;99.70;;;;;;5060494;28;20216;-82
2022/12/10 08:07:21;;;;;;;27.83;17.03;;;1.70;99.50;;;;;;5064188;28;20539;-83
2022/12/10 08:09:51;;;;;;;31.17;19.10;;;1.70;99.60;;;;;;5083568;28;20204;-83
2022/12/10 08:12:21;;;;;;;28.37;18.57;;;1.60;99.90;;;;;;5071892;28;20193;-82
2022/12/10 08:14:58;;;;;;;28.47;18.50;;;1.60;99.50;;;;;;5071079;28;20718;-83
2022/12/10 08:20:51;;;;;;;25.33;17.20;;;1.60;99.80;;;;;;5064909;28;20302;-83
2022/12/10 08:23:33;;;;;;;28.60;17.47;;;1.80;99.80;;;;;;5063205;28;20203;-83
2022/12/10 08:26:05;;;;;;;26.10;16.90;;;2.00;99.20;;;;;;5064067;28;20193;-84
2022/12/10 08:28:46;;;;;;;26.10;17.57;;;1.90;98.80;;;;;;5065203;28;20198;-85
2022/12/10 08:31:16;;;;;;;30.57;17.93;;;1.90;98.90;;;;;;5059528;28;20243;-85
2022/12/10 08:37:51;;;;;;;24.00;16.50;;;1.80;99.40;;;;;;5063138;28;20223;-85
2022/12/10 08:40:21;;;;;;;24.87;16.77;;;1.90;99.10;;;;;;5060485;28;20618;-84
2022/12/10 08:43:03;;;;;;;25.23;16.80;;;1.90;99.30;;;;;;5054883;28;20638;-84
2022/12/10 08:45:59;;;;;;;26.10;18.17;;;2.00;98.90;;;;;;5066509;28;20500;-84
2022/12/10 08:49:08;;;;;;;24.83;16.80;;;2.00;99.00;;;;;;5067354;28;20213;-83
2022/12/10 08:51:37;;;;;;;26.33;16.93;;;2.20;98.70;;;;;;5060201;28;20328;-84
2022/12/10 08:54:04;;;;;;;26.10;16.97;;;2.40;98.20;;;;;;5060110;28;20222;-88
2022/12/10 08:56:33;;;;;;;26.40;17.23;;;2.60;97.50;;;;;;5064476;28;20190;-87
2022/12/10 08:59:00;;;;;;;26.33;17.57;;;2.70;97.20;;;;;;5059349;28;20197;-85
2022/12/10 09:01:33;;;;;;;29.50;18.90;;;2.50;97.20;;;;;;5050392;28;20297;-83
2022/12/10 09:04:01;;;;;;;25.83;17.07;;;2.30;97.40;;;;;;5061790;28;20680;-84
2022/12/10 09:06:28;;;;;;;26.90;16.97;;;2.10;97.50;;;;;;5058511;28;20243;-86
2022/12/10 09:08:58;;;;;;;26.73;18.30;;;2.10;98.00;;;;;;5067104;28;20194;-87
2022/12/10 09:11:28;;;;;;;29.37;17.83;;;2.10;98.20;;;;;;5058904;28;20201;-87
2022/12/10 09:13:56;;;;;;;29.87;18.03;;;2.10;98.30;;;;;;5067080;28;20637;-85
2022/12/10 09:16:28;;;;;;;24.90;16.93;;;2.20;98.00;;;;;;5066143;28;20227;-84
2022/12/10 09:18:56;;;;;;;24.10;16.00;;;2.20;97.60;;;;;;5065453;28;20550;-84
2022/12/10 09:21:23;;;;;;;26.83;16.93;;;2.20;97.10;;;;;;5056443;28;20225;-83
2022/12/10 09:23:51;;;;;;;27.13;17.30;;;2.20;97.50;;;;;;5060995;28;20229;-84
2022/12/10 09:26:20;;;;;;;29.33;18.27;;;2.20;97.20;;;;;;5056407;28;20205;-85
2022/12/10 09:28:52;;;;;;;27.57;18.27;;;2.00;98.00;;;;;;5059409;28;20282;-83
2022/12/10 09:31:20;;;;;;;29.03;18.57;;;2.00;98.20;;;;;;5064339;28;20205;-82
2022/12/10 09:33:49;;;;;;;28.23;18.07;;;2.10;98.00;;;;;;5066299;28;20201;-83
2022/12/10 09:36:16;;;;;;;28.77;18.63;;;2.10;98.20;;;;;;5065388;28;20198;-85
2022/12/10 09:38:45;;;;;;;28.70;18.57;;;2.40;97.20;;;;;;5065567;28;20209;-85
2022/12/10 09:41:31;;;;;;;29.00;19.17;;;2.40;97.20;;;;;;5060749;28;20218;-85
2022/12/10 09:44:04;;;;;;;31.67;19.53;;;2.30;97.60;;;;;;5061219;28;20201;-86
2022/12/10 09:46:49;;;;;;;33.37;19.70;;;2.10;97.50;;;;;;5060864;28;20190;-85
2022/12/10 09:49:24;;;;;;;35.20;20.43;;;2.10;97.70;;;;;;5061289;28;20304;-87
2022/12/10 09:51:55;;;;;;;31.30;19.70;;;2.10;98.10;;;;;;5067941;28;20201;-84
2022/12/10 09:54:26;;;;;;;32.73;18.83;;;2.00;98.60;;;;;;5065308;28;20289;-86
2022/12/10 09:56:57;;;;;;;31.83;19.40;;;2.10;98.90;;;;;;5060134;28;20205;-84
2022/12/10 09:59:30;;;;;;;30.43;18.70;;;2.00;99.00;;;;;;5070325;28;20250;-84
2022/12/10 10:02:11;;;;;;;30.43;18.80;;;2.10;98.70;;;;;;5075470;28;20225;-84
2022/12/10 10:04:38;;;;;;;29.60;19.37;;;2.00;98.30;;;;;;5068123;28;20209;-84
2022/12/10 10:07:07;;;;;;;30.83;19.00;;;2.10;98.60;;;;;;5067426;28;20665;-84
2022/12/10 10:09:39;;;;;;;34.90;20.10;;;2.10;98.60;;;;;;5066823;28;20727;-84
2022/12/10 10:12:13;;;;;;;33.23;18.83;;;2.10;98.60;;;;;;5067564;28;20296;-83
2022/12/10 10:14:46;;;;;;;33.60;19.67;;;2.10;98.40;;;;;;5069985;28;20673;-84
2022/12/10 10:17:28;;;;;;;34.10;20.57;;;2.10;98.50;;;;;;5068010;28;20193;-85
2022/12/10 10:19:55;;;;;;;30.97;19.73;;;2.20;98.60;;;;;;5066145;28;20272;-84
2022/12/10 10:22:27;;;;;;;32.07;18.93;;;2.10;98.40;;;;;;5069429;28;20756;-84
2022/12/10 10:24:58;;;;;;;34.70;20.67;;;2.10;98.50;;;;;;5064588;28;20210;-85
2022/12/10 10:27:30;;;;;;;29.30;19.13;;;2.20;98.50;;;;;;5069572;28;20555;-84
2022/12/10 10:29:59;;;;;;;30.40;19.03;;;2.20;98.50;;;;;;5068135;28;20665;-87
2022/12/10 10:32:28;;;;;;;32.13;19.63;;;2.10;98.00;;;;;;5073290;28;20241;-83
2022/12/10 10:35:00;;;;;;;29.87;19.67;;;2.10;98.20;;;;;;5066229;28;20289;-83
2022/12/10 10:37:30;;;;;;;29.13;18.93;;;2.20;98.70;;;;;;5066439;28;20201;-86
2022/12/10 10:39:57;;;;;;;30.20;19.13;;;2.50;98.40;;;;;;5072217;28;20724;-83
2022/12/10 10:42:36;;;;;;;29.87;18.70;;;2.50;97.90;;;;;;5070363;28;20252;-83
2022/12/10 10:45:05;;;;;;;33.67;20.53;;;2.50;97.20;;;;;;5071559;28;20205;-84
2022/12/10 10:47:34;;;;;;;35.73;20.23;;;2.40;97.50;;;;;;5066989;28;20204;-84
2022/12/10 10:50:04;;;;;;;34.80;20.23;;;2.20;97.80;;;;;;5065206;28;20284;-84
2022/12/10 10:52:39;;;;;;;35.03;19.90;;;2.20;98.20;;;;;;5070682;28;20209;-84
2022/12/10 10:55:07;;;;;;;34.70;20.30;;;2.10;98.50;;;;;;5063406;28;20217;-85
2022/12/10 10:57:42;;;;;;;32.60;20.07;;;2.10;98.60;;;;;;5061459;28;20209;-84
2022/12/10 11:00:22;;;;;;;34.07;20.83;;;2.10;98.90;;;;;;5068144;28;20201;-84
2022/12/10 11:02:49;;;;;;;38.07;21.27;;;2.20;98.80;;;;;;5064439;28;20311;-84
2022/12/10 11:05:22;;;;;;;32.30;20.50;;;2.10;98.60;;;;;;5067324;28;20204;-83
2022/12/10 11:07:49;;;;;;;33.53;21.03;;;2.20;99.10;;;;;;5066964;28;20691;-84
2022/12/10 11:10:21;;;;;;;31.90;20.07;;;2.40;99.00;;;;;;5067705;28;20205;-84
2022/12/10 11:13:00;;;;;;;33.87;20.60;;;2.40;98.50;;;;;;5065477;28;20223;-83
2022/12/10 11:15:34;;;;;;;34.20;20.27;;;2.30;98.50;;;;;;5068110;28;20209;-86
2022/12/10 11:18:02;;;;;;;32.77;20.37;;;2.30;98.40;;;;;;5062996;28;20231;-84
2022/12/10 11:20:31;;;;;;;38.67;22.40;;;2.20;98.90;;;;;;5064916;28;20225;-83
2022/12/10 11:23:01;;;;;;;37.23;21.47;;;2.20;99.10;;;;;;5068672;28;20221;-84
2022/12/10 11:25:43;;;;;;;33.73;20.70;;;2.20;99.20;;;;;;5068718;28;20209;-84
2022/12/10 11:28:27;;;;;;;32.67;21.07;;;2.40;99.00;;;;;;5065544;28;20211;-84
2022/12/10 11:31:05;;;;;;;35.03;20.63;;;2.40;98.70;;;;;;5063459;28;20211;-84
2022/12/10 11:33:38;;;;;;;31.03;19.53;;;2.50;98.40;;;;;;5064850;28;20306;-83
2022/12/10 11:36:29;;;;;;;32.57;19.30;;;2.30;98.10;;;;;;5066776;28;20201;-84
2022/12/10 11:39:06;;;;;;;32.77;19.47;;;2.40;98.20;;;;;;5064939;28;20289;-84
2022/12/10 11:41:41;;;;;;;33.57;20.40;;;2.40;98.50;;;;;;5066203;28;20583;-84
2022/12/10 11:44:19;;;;;;;29.27;18.83;;;2.40;98.40;;;;;;5060756;28;20209;-84
2022/12/10 11:47:07;;;;;;;29.03;18.93;;;2.40;98.60;;;;;;5063131;28;20657;-84
2022/12/10 11:49:41;;;;;;;29.87;18.60;;;2.50;98.20;;;;;;5056383;28;20323;-84
2022/12/10 11:52:17;;;;;;;29.63;19.33;;;2.40;98.40;;;;;;5059033;28;20205;-84
2022/12/10 11:55:03;;;;;;;30.37;18.50;;;2.20;98.30;;;;;;5065590;28;20283;-85
2022/12/10 11:57:39;;;;;;;35.27;20.70;;;2.20;98.80;;;;;;5066830;28;20279;-85
2022/12/10 12:00:21;;;;;;;31.27;19.13;;;2.20;98.90;;;;;;5066620;28;20293;-86
2022/12/10 12:03:04;;;;;;;33.33;20.47;;;2.10;98.90;;;;;;5068824;28;20227;-84
2022/12/10 12:05:58;;;;;;;31.90;20.57;;;2.00;98.90;;;;;;5064932;28;20237;-85
2022/12/10 12:08:40;;;;;;;32.27;19.53;;;1.90;99.40;;;;;;5066287;28;20736;-83
2022/12/10 12:11:26;;;;;;;31.93;19.30;;;2.00;99.60;;;;;;5069415;28;20198;-84
2022/12/10 12:14:02;;;;;;;32.60;19.50;;;2.10;99.10;;;;;;5063005;28;20215;-85
2022/12/10 12:16:36;;;;;;;30.67;18.47;;;2.20;99.00;;;;;;5080641;28;20201;-84
2022/12/10 12:19:09;;;;;;;31.13;19.37;;;2.20;99.20;;;;;;5061706;28;20650;-85
2022/12/10 12:22:03;;;;;;;31.00;20.20;;;2.20;98.90;;;;;;5061749;28;20236;-88
2022/12/10 12:24:36;;;;;;;31.23;19.47;;;2.20;99.00;;;;;;5063276;28;20312;-85
2022/12/10 12:27:11;;;;;;;31.57;19.20;;;2.10;98.80;;;;;;5066945;28;20575;-84
2022/12/10 12:29:45;;;;;;;30.27;19.77;;;2.10;99.00;;;;;;5063547;28;20666;-87
2022/12/10 12:32:27;;;;;;;29.27;19.67;;;2.10;99.50;;;;;;5061984;28;20571;-85
2022/12/10 12:35:00;;;;;;;31.93;18.73;;;2.20;99.30;;;;;;5067986;28;20202;-86
2022/12/10 12:37:35;;;;;;;30.30;20.00;;;2.20;98.90;;;;;;5061717;28;20216;-85
2022/12/10 12:40:10;;;;;;;31.40;18.80;;;2.20;98.90;;;;;;5063104;28;20208;-89
2022/12/10 12:42:42;;;;;;;33.10;20.17;;;2.10;98.90;;;;;;5065637;28;20221;-85
2022/12/10 12:45:16;;;;;;;34.40;20.77;;;2.10;98.90;;;;;;5069193;28;20211;-84
2022/12/10 12:47:49;;;;;;;33.83;19.50;;;2.00;98.70;;;;;;5068279;28;20210;-86
2022/12/10 12:50:26;;;;;;;31.53;19.60;;;1.90;98.90;;;;;;5066780;28;20205;-84
2022/12/10 12:52:56;;;;;;;31.90;19.47;;;1.90;99.60;;;;;;5064297;28;20209;-86
2022/12/10 12:55:33;;;;;;;32.00;18.83;;;1.90;99.60;;;;;;5066266;28;20288;-85
2022/12/10 12:58:21;;;;;;;29.80;19.37;;;2.00;99.60;;;;;;5063324;28;20699;-86
2022/12/10 13:00:56;;;;;;;34.10;20.87;;;2.00;99.60;;;;;;5064598;28;20209;-82
2022/12/10 13:03:34;;;;;;;31.00;19.00;;;2.00;99.00;;;;;;5056100;28;20248;-83
2022/12/10 13:06:14;;;;;;;29.67;19.57;;;2.10;98.90;;;;;;5066215;28;20611;-82
2022/12/10 13:08:45;;;;;;;31.67;19.97;;;2.30;98.70;;;;;;5060103;28;20285;-87
2022/12/10 13:11:29;;;;;;;31.57;20.30;;;2.30;98.60;;;;;;5061674;28;20208;-83
2022/12/10 13:14:31;;;;;;;33.00;19.73;;;2.20;98.60;;;;;;5061060;28;20217;-82
2022/12/10 13:17:28;;;;;;;34.17;20.93;;;2.00;98.30;;;;;;5060288;28;20213;-84
2022/12/10 13:20:29;;;;;;;31.00;19.93;;;1.90;98.80;;;;;;5018976;28;20255;-85
2022/12/10 13:22:58;;;;;;;33.00;20.60;;;1.80;99.00;;;;;;5058121;28;20256;-84
2022/12/10 13:25:59;;;;;;;30.27;19.60;;;1.80;99.60;;;;;;5053121;28;20216;-84
2022/12/10 13:28:38;;;;;;;31.10;19.47;;;1.90;99.60;;;;;;5054152;28;20236;-84
2022/12/10 13:31:19;;;;;;;36.00;20.67;;;2.00;99.60;;;;;;5056754;28;20205;-83
2022/12/10 13:33:50;;;;;;;34.30;19.73;;;2.10;98.80;;;;;;5061745;28;20219;-84
2022/12/10 13:36:25;;;;;;;34.00;20.10;;;2.10;98.80;;;;;;5060627;28;20641;-85
2022/12/10 13:39:13;;;;;;;32.93;20.27;;;2.10;99.20;;;;;;5062365;28;20207;-83
2022/12/10 13:44:36;;;;;;;31.87;20.20;;;2.10;99.60;;;;;;5064951;28;20262;-84
2022/12/10 13:47:24;;;;;;;33.37;20.93;;;2.10;98.80;;;;;;5057239;28;20215;-84
2022/12/10 13:49:54;;;;;;;32.03;19.80;;;2.10;99.10;;;;;;5068855;28;20197;-84
2022/12/10 13:52:27;;;;;;;33.23;19.60;;;2.10;99.30;;;;;;5060768;28;20286;-83
2022/12/10 13:55:19;;;;;;;33.57;21.17;;;2.20;99.10;;;;;;5061858;28;20224;-83
2022/12/10 13:58:01;;;;;;;33.83;21.33;;;2.10;98.90;;;;;;5064029;28;20208;-84
2022/12/10 14:00:35;;;;;;;32.70;20.27;;;2.10;99.10;;;;;;5065969;28;20211;-86
2022/12/10 14:03:22;;;;;;;33.00;21.07;;;2.10;99.20;;;;;;5068818;28;20308;-83
2022/12/10 14:06:03;;;;;;;32.43;20.10;;;2.00;99.60;;;;;;5063123;28;20406;-83
2022/12/10 14:08:34;;;;;;;30.83;19.63;;;2.00;99.90;;;;;;5066764;28;20287;-83
2022/12/10 14:11:03;;;;;;;31.10;19.87;;;2.00;99.60;;;;;;5067218;28;20550;-83